sensor_id;sensor_type;location;lat;lon;timestamp;P1;durP1;ratioP1;P2;durP2;ratioP2
15412;SDS011;7805;49.554;7.632;2023-03-01T00:01:44;11.73;;;8.90;;
15412;SDS011;7805;49.554;7.632;2023-03-01T00:04:10;13.10;;;8.73;;
15412;SDS011;7805;49.554;7.632;2023-03-01T00:06:36;10.80;;;8.27;;
15412;SDS011;7805;49.554;7.632;2023-03-01T00:09:02;12.37;;;8.77;;
15412;SDS011;7805;49.554;7.632;2023-03-01T00:11:29;10.43;;;8.10;;
15412;SDS011;7805;49.554;7.632;2023-03-01T00:13:57;11.13;;;8.67;;
15412;SDS011;7805;49.554;7.632;2023-03-01T00:16:26;11.73;;;9.37;;
15412;SDS011;7805;49.554;7.632;2023-03-01T00:18:58;11.10;;;8.50;;
15412;SDS011;7805;49.554;7.632;2023-03-01T00:21:24;12.83;;;8.17;;
15412;SDS011;7805;49.554;7.632;2023-03-01T00:23:50;16.70;;;8.70;;
15412;SDS011;7805;49.554;7.632;2023-03-01T00:26:17;13.33;;;9.93;;
15412;SDS011;7805;49.554;7.632;2023-03-01T00:28:44;11.67;;;9.17;;
15412;SDS011;7805;49.554;7.632;2023-03-01T00:31:17;15.10;;;9.60;;
15412;SDS011;7805;49.554;7.632;2023-03-01T00:33:44;13.83;;;10.10;;
15412;SDS011;7805;49.554;7.632;2023-03-01T00:36:10;13.07;;;9.77;;
15412;SDS011;7805;49.554;7.632;2023-03-01T00:38:39;13.37;;;10.40;;
15412;SDS011;7805;49.554;7.632;2023-03-01T00:41:07;15.13;;;10.43;;
15412;SDS011;7805;49.554;7.632;2023-03-01T00:43:34;13.07;;;9.87;;
15412;SDS011;7805;49.554;7.632;2023-03-01T00:46:06;14.90;;;11.07;;
15412;SDS011;7805;49.554;7.632;2023-03-01T00:48:34;14.87;;;10.10;;
15412;SDS011;7805;49.554;7.632;2023-03-01T00:51:04;16.23;;;10.03;;
15412;SDS011;7805;49.554;7.632;2023-03-01T00:53:34;15.50;;;10.10;;
15412;SDS011;7805;49.554;7.632;2023-03-01T00:56:01;12.47;;;9.33;;
15412;SDS011;7805;49.554;7.632;2023-03-01T00:58:27;13.67;;;9.97;;
15412;SDS011;7805;49.554;7.632;2023-03-01T01:00:52;12.63;;;9.80;;
15412;SDS011;7805;49.554;7.632;2023-03-01T01:03:18;12.73;;;9.93;;
15412;SDS011;7805;49.554;7.632;2023-03-01T01:05:44;18.47;;;11.10;;
15412;SDS011;7805;49.554;7.632;2023-03-01T01:08:10;20.80;;;12.80;;
15412;SDS011;7805;49.554;7.632;2023-03-01T01:10:35;29.23;;;17.43;;
15412;SDS011;7805;49.554;7.632;2023-03-01T01:13:02;26.10;;;15.77;;
15412;SDS011;7805;49.554;7.632;2023-03-01T01:15:28;21.20;;;13.80;;
15412;SDS011;7805;49.554;7.632;2023-03-01T01:17:53;17.87;;;12.57;;
15412;SDS011;7805;49.554;7.632;2023-03-01T01:20:19;17.30;;;11.20;;
15412;SDS011;7805;49.554;7.632;2023-03-01T01:22:45;17.63;;;12.10;;
15412;SDS011;7805;49.554;7.632;2023-03-01T01:25:11;15.33;;;10.73;;
15412;SDS011;7805;49.554;7.632;2023-03-01T01:27:36;14.30;;;10.43;;
15412;SDS011;7805;49.554;7.632;2023-03-01T01:30:02;13.43;;;8.90;;
15412;SDS011;7805;49.554;7.632;2023-03-01T01:32:29;12.37;;;10.13;;
15412;SDS011;7805;49.554;7.632;2023-03-01T01:34:54;16.90;;;11.03;;
15412;SDS011;7805;49.554;7.632;2023-03-01T01:37:20;14.97;;;10.77;;
15412;SDS011;7805;49.554;7.632;2023-03-01T01:39:46;13.33;;;10.30;;
15412;SDS011;7805;49.554;7.632;2023-03-01T01:42:14;14.47;;;10.63;;
15412;SDS011;7805;49.554;7.632;2023-03-01T01:44:42;13.70;;;11.00;;
15412;SDS011;7805;49.554;7.632;2023-03-01T01:47:17;16.10;;;10.20;;
15412;SDS011;7805;49.554;7.632;2023-03-01T01:49:47;12.20;;;9.97;;
15412;SDS011;7805;49.554;7.632;2023-03-01T01:54:50;13.07;;;9.63;;
15412;SDS011;7805;49.554;7.632;2023-03-01T02:00:38;15.23;;;10.93;;
15412;SDS011;7805;49.554;7.632;2023-03-01T02:03:11;15.20;;;10.57;;
15412;SDS011;7805;49.554;7.632;2023-03-01T02:06:03;13.67;;;10.27;;
15412;SDS011;7805;49.554;7.632;2023-03-01T02:08:48;15.57;;;10.67;;
15412;SDS011;7805;49.554;7.632;2023-03-01T02:11:15;15.77;;;10.27;;
15412;SDS011;7805;49.554;7.632;2023-03-01T02:13:43;16.10;;;10.77;;
15412;SDS011;7805;49.554;7.632;2023-03-01T02:16:11;15.43;;;10.50;;
15412;SDS011;7805;49.554;7.632;2023-03-01T02:18:39;14.50;;;10.03;;
15412;SDS011;7805;49.554;7.632;2023-03-01T02:23:50;16.47;;;10.33;;
15412;SDS011;7805;49.554;7.632;2023-03-01T02:26:29;16.90;;;11.43;;
15412;SDS011;7805;49.554;7.632;2023-03-01T02:29:11;16.37;;;11.37;;
15412;SDS011;7805;49.554;7.632;2023-03-01T02:31:37;15.87;;;10.60;;
15412;SDS011;7805;49.554;7.632;2023-03-01T02:34:13;14.10;;;9.83;;
15412;SDS011;7805;49.554;7.632;2023-03-01T02:36:46;17.73;;;11.07;;
15412;SDS011;7805;49.554;7.632;2023-03-01T02:39:13;14.00;;;10.60;;
15412;SDS011;7805;49.554;7.632;2023-03-01T02:41:42;15.87;;;10.87;;
15412;SDS011;7805;49.554;7.632;2023-03-01T02:44:12;17.40;;;12.10;;
15412;SDS011;7805;49.554;7.632;2023-03-01T02:46:42;15.80;;;10.63;;
15412;SDS011;7805;49.554;7.632;2023-03-01T02:49:43;15.33;;;11.03;;
15412;SDS011;7805;49.554;7.632;2023-03-01T02:54:47;13.97;;;10.60;;
15412;SDS011;7805;49.554;7.632;2023-03-01T02:57:33;17.37;;;11.67;;
15412;SDS011;7805;49.554;7.632;2023-03-01T03:00:03;17.60;;;11.10;;
15412;SDS011;7805;49.554;7.632;2023-03-01T03:02:44;15.80;;;10.77;;
15412;SDS011;7805;49.554;7.632;2023-03-01T03:05:12;16.90;;;11.23;;
15412;SDS011;7805;49.554;7.632;2023-03-01T03:07:43;16.93;;;11.67;;
15412;SDS011;7805;49.554;7.632;2023-03-01T03:10:11;18.93;;;11.47;;
15412;SDS011;7805;49.554;7.632;2023-03-01T03:12:40;19.10;;;12.27;;
15412;SDS011;7805;49.554;7.632;2023-03-01T03:15:06;20.27;;;12.70;;
15412;SDS011;7805;49.554;7.632;2023-03-01T03:17:37;16.90;;;11.77;;
15412;SDS011;7805;49.554;7.632;2023-03-01T03:20:04;14.80;;;11.10;;
15412;SDS011;7805;49.554;7.632;2023-03-01T03:22:35;15.53;;;11.47;;
15412;SDS011;7805;49.554;7.632;2023-03-01T03:25:01;18.10;;;11.53;;
15412;SDS011;7805;49.554;7.632;2023-03-01T03:27:27;18.60;;;11.63;;
15412;SDS011;7805;49.554;7.632;2023-03-01T03:29:53;19.17;;;11.77;;
15412;SDS011;7805;49.554;7.632;2023-03-01T03:32:18;18.00;;;12.67;;
15412;SDS011;7805;49.554;7.632;2023-03-01T03:34:44;22.17;;;14.00;;
15412;SDS011;7805;49.554;7.632;2023-03-01T03:37:09;18.20;;;12.43;;
15412;SDS011;7805;49.554;7.632;2023-03-01T03:39:55;18.83;;;11.83;;
15412;SDS011;7805;49.554;7.632;2023-03-01T03:42:21;17.63;;;12.47;;
15412;SDS011;7805;49.554;7.632;2023-03-01T03:44:47;17.00;;;11.60;;
15412;SDS011;7805;49.554;7.632;2023-03-01T03:47:13;18.13;;;11.93;;
15412;SDS011;7805;49.554;7.632;2023-03-01T03:49:38;16.23;;;12.00;;
15412;SDS011;7805;49.554;7.632;2023-03-01T03:52:04;20.87;;;12.97;;
15412;SDS011;7805;49.554;7.632;2023-03-01T03:54:29;16.70;;;12.13;;
15412;SDS011;7805;49.554;7.632;2023-03-01T03:56:55;16.20;;;12.03;;
15412;SDS011;7805;49.554;7.632;2023-03-01T03:59:20;18.53;;;13.07;;
15412;SDS011;7805;49.554;7.632;2023-03-01T04:01:46;17.90;;;12.20;;
15412;SDS011;7805;49.554;7.632;2023-03-01T04:04:11;20.67;;;13.57;;
15412;SDS011;7805;49.554;7.632;2023-03-01T04:06:38;17.90;;;11.40;;
15412;SDS011;7805;49.554;7.632;2023-03-01T04:09:03;17.90;;;11.93;;
15412;SDS011;7805;49.554;7.632;2023-03-01T04:11:29;17.70;;;12.43;;
15412;SDS011;7805;49.554;7.632;2023-03-01T04:13:56;17.63;;;12.07;;
15412;SDS011;7805;49.554;7.632;2023-03-01T04:16:23;16.23;;;12.07;;
15412;SDS011;7805;49.554;7.632;2023-03-01T04:18:49;17.37;;;12.57;;
15412;SDS011;7805;49.554;7.632;2023-03-01T04:21:14;18.93;;;12.87;;
15412;SDS011;7805;49.554;7.632;2023-03-01T04:23:40;17.83;;;12.63;;
15412;SDS011;7805;49.554;7.632;2023-03-01T04:26:06;20.00;;;12.93;;
15412;SDS011;7805;49.554;7.632;2023-03-01T04:28:36;18.07;;;13.00;;
15412;SDS011;7805;49.554;7.632;2023-03-01T04:31:09;16.97;;;12.00;;
15412;SDS011;7805;49.554;7.632;2023-03-01T04:33:43;19.87;;;13.10;;
15412;SDS011;7805;49.554;7.632;2023-03-01T04:36:11;21.40;;;13.20;;
15412;SDS011;7805;49.554;7.632;2023-03-01T04:38:38;20.43;;;12.03;;
15412;SDS011;7805;49.554;7.632;2023-03-01T04:41:05;18.80;;;12.73;;
15412;SDS011;7805;49.554;7.632;2023-03-01T04:43:32;18.67;;;12.80;;
15412;SDS011;7805;49.554;7.632;2023-03-01T04:46:04;18.83;;;12.47;;
15412;SDS011;7805;49.554;7.632;2023-03-01T04:48:32;18.27;;;12.07;;
15412;SDS011;7805;49.554;7.632;2023-03-01T04:50:58;20.40;;;13.00;;
15412;SDS011;7805;49.554;7.632;2023-03-01T04:53:24;20.53;;;13.73;;
15412;SDS011;7805;49.554;7.632;2023-03-01T04:55:51;19.63;;;13.47;;
15412;SDS011;7805;49.554;7.632;2023-03-01T04:58:17;19.00;;;12.57;;
15412;SDS011;7805;49.554;7.632;2023-03-01T05:00:42;21.93;;;13.27;;
15412;SDS011;7805;49.554;7.632;2023-03-01T05:03:08;18.30;;;13.30;;
15412;SDS011;7805;49.554;7.632;2023-03-01T05:05:34;20.03;;;13.03;;
15412;SDS011;7805;49.554;7.632;2023-03-01T05:08:05;18.33;;;12.67;;
15412;SDS011;7805;49.554;7.632;2023-03-01T05:10:33;19.50;;;12.83;;
15412;SDS011;7805;49.554;7.632;2023-03-01T05:13:00;18.83;;;12.80;;
15412;SDS011;7805;49.554;7.632;2023-03-01T05:15:28;26.17;;;13.83;;
15412;SDS011;7805;49.554;7.632;2023-03-01T05:17:56;23.03;;;14.33;;
15412;SDS011;7805;49.554;7.632;2023-03-01T05:20:24;20.67;;;13.77;;
15412;SDS011;7805;49.554;7.632;2023-03-01T05:22:51;20.10;;;12.57;;
15412;SDS011;7805;49.554;7.632;2023-03-01T05:25:19;22.27;;;15.40;;
15412;SDS011;7805;49.554;7.632;2023-03-01T05:27:46;20.97;;;15.03;;
15412;SDS011;7805;49.554;7.632;2023-03-01T05:30:12;23.00;;;14.60;;
15412;SDS011;7805;49.554;7.632;2023-03-01T05:32:41;20.37;;;15.60;;
15412;SDS011;7805;49.554;7.632;2023-03-01T05:35:12;23.83;;;15.43;;
15412;SDS011;7805;49.554;7.632;2023-03-01T05:37:42;21.83;;;15.03;;
15412;SDS011;7805;49.554;7.632;2023-03-01T05:40:13;20.53;;;14.13;;
15412;SDS011;7805;49.554;7.632;2023-03-01T05:42:42;20.03;;;14.00;;
15412;SDS011;7805;49.554;7.632;2023-03-01T05:45:09;20.97;;;14.87;;
15412;SDS011;7805;49.554;7.632;2023-03-01T05:47:35;22.33;;;15.53;;
15412;SDS011;7805;49.554;7.632;2023-03-01T05:50:01;19.90;;;13.97;;
15412;SDS011;7805;49.554;7.632;2023-03-01T05:52:27;24.40;;;15.77;;
15412;SDS011;7805;49.554;7.632;2023-03-01T05:54:52;25.43;;;14.67;;
15412;SDS011;7805;49.554;7.632;2023-03-01T05:57:18;25.40;;;16.00;;
15412;SDS011;7805;49.554;7.632;2023-03-01T05:59:43;22.27;;;14.10;;
15412;SDS011;7805;49.554;7.632;2023-03-01T06:02:10;25.63;;;14.80;;
15412;SDS011;7805;49.554;7.632;2023-03-01T06:04:35;22.17;;;14.57;;
15412;SDS011;7805;49.554;7.632;2023-03-01T06:07:01;23.87;;;14.57;;
15412;SDS011;7805;49.554;7.632;2023-03-01T06:09:26;20.37;;;13.43;;
15412;SDS011;7805;49.554;7.632;2023-03-01T06:11:52;33.30;;;19.93;;
15412;SDS011;7805;49.554;7.632;2023-03-01T06:14:17;38.97;;;23.70;;
15412;SDS011;7805;49.554;7.632;2023-03-01T06:16:43;28.33;;;18.73;;
15412;SDS011;7805;49.554;7.632;2023-03-01T06:19:09;22.90;;;15.07;;
15412;SDS011;7805;49.554;7.632;2023-03-01T06:21:34;18.73;;;14.00;;
15412;SDS011;7805;49.554;7.632;2023-03-01T06:24:00;24.20;;;15.33;;
15412;SDS011;7805;49.554;7.632;2023-03-01T06:26:26;26.00;;;15.53;;
15412;SDS011;7805;49.554;7.632;2023-03-01T06:28:52;22.07;;;14.87;;
15412;SDS011;7805;49.554;7.632;2023-03-01T06:31:17;24.07;;;14.93;;
15412;SDS011;7805;49.554;7.632;2023-03-01T06:33:43;22.63;;;14.30;;
15412;SDS011;7805;49.554;7.632;2023-03-01T06:36:09;22.83;;;14.63;;
15412;SDS011;7805;49.554;7.632;2023-03-01T06:38:35;20.37;;;14.20;;
15412;SDS011;7805;49.554;7.632;2023-03-01T06:41:00;22.53;;;15.07;;
15412;SDS011;7805;49.554;7.632;2023-03-01T06:43:26;21.17;;;14.43;;
15412;SDS011;7805;49.554;7.632;2023-03-01T06:45:52;21.07;;;13.83;;
15412;SDS011;7805;49.554;7.632;2023-03-01T06:48:17;21.30;;;15.10;;
15412;SDS011;7805;49.554;7.632;2023-03-01T06:50:43;20.53;;;14.43;;
15412;SDS011;7805;49.554;7.632;2023-03-01T06:53:08;20.83;;;14.87;;
15412;SDS011;7805;49.554;7.632;2023-03-01T06:55:34;19.20;;;14.07;;
15412;SDS011;7805;49.554;7.632;2023-03-01T06:58:00;20.40;;;14.00;;
15412;SDS011;7805;49.554;7.632;2023-03-01T07:00:27;24.13;;;15.33;;
15412;SDS011;7805;49.554;7.632;2023-03-01T07:02:53;26.17;;;14.90;;
15412;SDS011;7805;49.554;7.632;2023-03-01T07:05:20;20.20;;;14.40;;
15412;SDS011;7805;49.554;7.632;2023-03-01T07:07:45;23.27;;;15.03;;
15412;SDS011;7805;49.554;7.632;2023-03-01T07:10:12;23.90;;;16.27;;
15412;SDS011;7805;49.554;7.632;2023-03-01T07:12:37;24.83;;;16.30;;
15412;SDS011;7805;49.554;7.632;2023-03-01T07:15:03;26.07;;;16.90;;
15412;SDS011;7805;49.554;7.632;2023-03-01T07:17:29;27.20;;;17.90;;
15412;SDS011;7805;49.554;7.632;2023-03-01T07:19:55;26.47;;;19.60;;
15412;SDS011;7805;49.554;7.632;2023-03-01T07:22:21;25.23;;;16.87;;
15412;SDS011;7805;49.554;7.632;2023-03-01T07:24:47;21.60;;;16.13;;
15412;SDS011;7805;49.554;7.632;2023-03-01T07:27:12;22.30;;;16.00;;
15412;SDS011;7805;49.554;7.632;2023-03-01T07:29:38;24.27;;;16.10;;
15412;SDS011;7805;49.554;7.632;2023-03-01T07:32:04;22.77;;;14.90;;
15412;SDS011;7805;49.554;7.632;2023-03-01T07:34:30;21.00;;;15.03;;
15412;SDS011;7805;49.554;7.632;2023-03-01T07:36:55;23.17;;;15.70;;
15412;SDS011;7805;49.554;7.632;2023-03-01T07:39:21;19.27;;;14.33;;
15412;SDS011;7805;49.554;7.632;2023-03-01T07:41:48;21.47;;;14.70;;
15412;SDS011;7805;49.554;7.632;2023-03-01T07:44:14;20.77;;;16.23;;
15412;SDS011;7805;49.554;7.632;2023-03-01T07:46:40;19.93;;;14.53;;
15412;SDS011;7805;49.554;7.632;2023-03-01T07:49:05;22.00;;;15.10;;
15412;SDS011;7805;49.554;7.632;2023-03-01T07:51:31;19.93;;;14.77;;
15412;SDS011;7805;49.554;7.632;2023-03-01T07:53:57;17.13;;;13.37;;
15412;SDS011;7805;49.554;7.632;2023-03-01T07:56:22;18.47;;;14.53;;
15412;SDS011;7805;49.554;7.632;2023-03-01T08:01:17;18.53;;;14.60;;
15412;SDS011;7805;49.554;7.632;2023-03-01T08:03:44;17.30;;;13.57;;
15412;SDS011;7805;49.554;7.632;2023-03-01T08:06:10;28.17;;;19.97;;
15412;SDS011;7805;49.554;7.632;2023-03-01T08:08:37;18.30;;;14.77;;
15412;SDS011;7805;49.554;7.632;2023-03-01T08:11:04;21.63;;;15.73;;
15412;SDS011;7805;49.554;7.632;2023-03-01T08:13:30;18.47;;;14.27;;
15412;SDS011;7805;49.554;7.632;2023-03-01T08:16:03;18.03;;;14.97;;
15412;SDS011;7805;49.554;7.632;2023-03-01T08:18:30;19.10;;;15.00;;
15412;SDS011;7805;49.554;7.632;2023-03-01T08:20:56;19.77;;;16.10;;
15412;SDS011;7805;49.554;7.632;2023-03-01T08:23:37;19.83;;;16.23;;
15412;SDS011;7805;49.554;7.632;2023-03-01T08:26:13;20.03;;;15.83;;
15412;SDS011;7805;49.554;7.632;2023-03-01T08:28:41;21.00;;;14.60;;
15412;SDS011;7805;49.554;7.632;2023-03-01T08:31:26;19.03;;;15.67;;
15412;SDS011;7805;49.554;7.632;2023-03-01T08:33:57;23.07;;;15.27;;
15412;SDS011;7805;49.554;7.632;2023-03-01T08:36:25;17.67;;;13.77;;
15412;SDS011;7805;49.554;7.632;2023-03-01T08:38:52;23.80;;;15.37;;
15412;SDS011;7805;49.554;7.632;2023-03-01T08:41:19;20.20;;;15.10;;
15412;SDS011;7805;49.554;7.632;2023-03-01T08:43:44;19.20;;;15.53;;
15412;SDS011;7805;49.554;7.632;2023-03-01T08:46:10;22.10;;;14.87;;
15412;SDS011;7805;49.554;7.632;2023-03-01T08:48:37;18.57;;;14.73;;
15412;SDS011;7805;49.554;7.632;2023-03-01T08:51:06;17.00;;;13.87;;
15412;SDS011;7805;49.554;7.632;2023-03-01T08:53:36;19.10;;;15.33;;
15412;SDS011;7805;49.554;7.632;2023-03-01T08:56:02;22.27;;;14.47;;
15412;SDS011;7805;49.554;7.632;2023-03-01T08:58:28;16.33;;;14.40;;
15412;SDS011;7805;49.554;7.632;2023-03-01T09:00:54;18.03;;;14.70;;
15412;SDS011;7805;49.554;7.632;2023-03-01T09:03:21;17.83;;;13.23;;
15412;SDS011;7805;49.554;7.632;2023-03-01T09:05:47;20.37;;;14.70;;
15412;SDS011;7805;49.554;7.632;2023-03-01T09:08:15;22.80;;;15.13;;
15412;SDS011;7805;49.554;7.632;2023-03-01T09:10:41;18.67;;;13.93;;
15412;SDS011;7805;49.554;7.632;2023-03-01T09:13:07;19.03;;;15.07;;
15412;SDS011;7805;49.554;7.632;2023-03-01T09:15:32;20.10;;;14.43;;
15412;SDS011;7805;49.554;7.632;2023-03-01T09:17:58;20.50;;;15.07;;
15412;SDS011;7805;49.554;7.632;2023-03-01T09:20:24;17.73;;;14.77;;
15412;SDS011;7805;49.554;7.632;2023-03-01T09:22:50;17.40;;;14.50;;
15412;SDS011;7805;49.554;7.632;2023-03-01T09:25:15;18.87;;;14.63;;
15412;SDS011;7805;49.554;7.632;2023-03-01T09:27:41;18.20;;;14.97;;
15412;SDS011;7805;49.554;7.632;2023-03-01T09:30:07;19.27;;;14.87;;
15412;SDS011;7805;49.554;7.632;2023-03-01T09:32:33;19.80;;;14.80;;
15412;SDS011;7805;49.554;7.632;2023-03-01T09:34:58;18.87;;;14.17;;
15412;SDS011;7805;49.554;7.632;2023-03-01T09:37:29;17.43;;;15.03;;
15412;SDS011;7805;49.554;7.632;2023-03-01T09:39:58;19.10;;;14.83;;
15412;SDS011;7805;49.554;7.632;2023-03-01T09:42:24;16.40;;;14.33;;
15412;SDS011;7805;49.554;7.632;2023-03-01T09:44:52;17.00;;;13.93;;
15412;SDS011;7805;49.554;7.632;2023-03-01T09:47:26;20.67;;;15.87;;
15412;SDS011;7805;49.554;7.632;2023-03-01T09:52:54;20.77;;;16.17;;
15412;SDS011;7805;49.554;7.632;2023-03-01T09:55:36;18.03;;;14.50;;
15412;SDS011;7805;49.554;7.632;2023-03-01T10:00:50;17.97;;;14.57;;
15412;SDS011;7805;49.554;7.632;2023-03-01T10:06:04;18.57;;;15.23;;
15412;SDS011;7805;49.554;7.632;2023-03-01T10:11:19;17.43;;;14.43;;
15412;SDS011;7805;49.554;7.632;2023-03-01T10:14:09;18.33;;;14.90;;
15412;SDS011;7805;49.554;7.632;2023-03-01T10:16:59;16.33;;;14.57;;
15412;SDS011;7805;49.554;7.632;2023-03-01T10:21:57;19.73;;;15.67;;
15412;SDS011;7805;49.554;7.632;2023-03-01T10:24:32;19.90;;;15.80;;
15412;SDS011;7805;49.554;7.632;2023-03-01T10:27:16;19.40;;;14.87;;
15412;SDS011;7805;49.554;7.632;2023-03-01T10:29:54;20.17;;;15.30;;
15412;SDS011;7805;49.554;7.632;2023-03-01T10:32:28;19.00;;;15.63;;
15412;SDS011;7805;49.554;7.632;2023-03-01T10:34:54;20.33;;;16.27;;
15412;SDS011;7805;49.554;7.632;2023-03-01T10:37:20;19.43;;;16.07;;
15412;SDS011;7805;49.554;7.632;2023-03-01T10:42:48;21.73;;;16.33;;
15412;SDS011;7805;49.554;7.632;2023-03-01T10:48:20;18.83;;;15.43;;
15412;SDS011;7805;49.554;7.632;2023-03-01T10:51:14;18.17;;;15.53;;
15412;SDS011;7805;49.554;7.632;2023-03-01T10:53:42;21.53;;;16.30;;
15412;SDS011;7805;49.554;7.632;2023-03-01T10:56:14;21.13;;;16.10;;
15412;SDS011;7805;49.554;7.632;2023-03-01T10:58:56;20.30;;;15.60;;
15412;SDS011;7805;49.554;7.632;2023-03-01T11:04:10;19.67;;;15.80;;
15412;SDS011;7805;49.554;7.632;2023-03-01T11:06:38;23.00;;;17.07;;
15412;SDS011;7805;49.554;7.632;2023-03-01T11:09:20;23.80;;;15.97;;
15412;SDS011;7805;49.554;7.632;2023-03-01T11:11:57;20.87;;;16.13;;
15412;SDS011;7805;49.554;7.632;2023-03-01T11:14:26;17.67;;;15.57;;
15412;SDS011;7805;49.554;7.632;2023-03-01T11:17:13;18.83;;;15.60;;
15412;SDS011;7805;49.554;7.632;2023-03-01T11:19:43;19.17;;;16.37;;
15412;SDS011;7805;49.554;7.632;2023-03-01T11:22:59;19.23;;;16.20;;
15412;SDS011;7805;49.554;7.632;2023-03-01T11:25:47;18.70;;;15.47;;
15412;SDS011;7805;49.554;7.632;2023-03-01T11:28:18;20.20;;;16.77;;
15412;SDS011;7805;49.554;7.632;2023-03-01T11:33:30;20.17;;;15.33;;
15412;SDS011;7805;49.554;7.632;2023-03-01T11:38:40;21.37;;;16.00;;
15412;SDS011;7805;49.554;7.632;2023-03-01T11:41:20;20.63;;;16.33;;
15412;SDS011;7805;49.554;7.632;2023-03-01T11:54:39;18.17;;;15.70;;
15412;SDS011;7805;49.554;7.632;2023-03-01T12:04:59;24.60;;;17.07;;
15412;SDS011;7805;49.554;7.632;2023-03-01T12:30:34;25.00;;;16.30;;
15412;SDS011;7805;49.554;7.632;2023-03-01T12:38:50;18.57;;;14.67;;
15412;SDS011;7805;49.554;7.632;2023-03-01T12:44:23;20.37;;;16.80;;
15412;SDS011;7805;49.554;7.632;2023-03-01T12:52:16;18.37;;;16.00;;
15412;SDS011;7805;49.554;7.632;2023-03-01T12:54:48;18.10;;;16.30;;
15412;SDS011;7805;49.554;7.632;2023-03-01T12:57:26;22.23;;;16.63;;
15412;SDS011;7805;49.554;7.632;2023-03-01T13:05:44;20.43;;;17.43;;
15412;SDS011;7805;49.554;7.632;2023-03-01T13:11:00;17.70;;;15.77;;
15412;SDS011;7805;49.554;7.632;2023-03-01T13:13:28;21.27;;;16.93;;
15412;SDS011;7805;49.554;7.632;2023-03-01T13:15:55;17.83;;;15.93;;
15412;SDS011;7805;49.554;7.632;2023-03-01T13:20:53;20.30;;;16.57;;
15412;SDS011;7805;49.554;7.632;2023-03-01T13:30:59;17.93;;;16.03;;
15412;SDS011;7805;49.554;7.632;2023-03-01T13:35:51;19.33;;;16.67;;
15412;SDS011;7805;49.554;7.632;2023-03-01T13:38:37;21.00;;;15.87;;
15412;SDS011;7805;49.554;7.632;2023-03-01T13:41:03;22.47;;;16.47;;
15412;SDS011;7805;49.554;7.632;2023-03-01T13:43:37;22.10;;;16.37;;
15412;SDS011;7805;49.554;7.632;2023-03-01T13:46:16;20.47;;;15.63;;
15412;SDS011;7805;49.554;7.632;2023-03-01T13:48:49;18.77;;;15.37;;
15412;SDS011;7805;49.554;7.632;2023-03-01T13:51:20;17.57;;;15.37;;
15412;SDS011;7805;49.554;7.632;2023-03-01T13:53:51;19.27;;;15.80;;
15412;SDS011;7805;49.554;7.632;2023-03-01T13:56:24;17.50;;;15.17;;
15412;SDS011;7805;49.554;7.632;2023-03-01T14:03:56;21.07;;;15.50;;
15412;SDS011;7805;49.554;7.632;2023-03-01T14:06:27;24.23;;;15.60;;
15412;SDS011;7805;49.554;7.632;2023-03-01T14:09:05;16.70;;;14.77;;
15412;SDS011;7805;49.554;7.632;2023-03-01T14:11:36;16.60;;;14.83;;
15412;SDS011;7805;49.554;7.632;2023-03-01T14:19:24;18.07;;;14.53;;
15412;SDS011;7805;49.554;7.632;2023-03-01T14:22:07;15.23;;;13.63;;
15412;SDS011;7805;49.554;7.632;2023-03-01T14:24:46;17.00;;;14.57;;
15412;SDS011;7805;49.554;7.632;2023-03-01T14:27:14;20.90;;;14.57;;
15412;SDS011;7805;49.554;7.632;2023-03-01T14:29:41;18.63;;;14.57;;
15412;SDS011;7805;49.554;7.632;2023-03-01T14:32:10;15.47;;;13.33;;
15412;SDS011;7805;49.554;7.632;2023-03-01T14:34:51;14.70;;;13.10;;
15412;SDS011;7805;49.554;7.632;2023-03-01T14:37:19;19.20;;;14.53;;
15412;SDS011;7805;49.554;7.632;2023-03-01T14:39:46;16.33;;;14.33;;
15412;SDS011;7805;49.554;7.632;2023-03-01T14:42:13;18.73;;;16.20;;
15412;SDS011;7805;49.554;7.632;2023-03-01T14:44:41;16.37;;;13.27;;
15412;SDS011;7805;49.554;7.632;2023-03-01T14:47:11;13.50;;;12.10;;
15412;SDS011;7805;49.554;7.632;2023-03-01T14:49:40;15.47;;;13.67;;
15412;SDS011;7805;49.554;7.632;2023-03-01T14:52:17;16.30;;;12.93;;
15412;SDS011;7805;49.554;7.632;2023-03-01T14:54:46;14.97;;;13.10;;
15412;SDS011;7805;49.554;7.632;2023-03-01T14:57:15;14.13;;;11.90;;
15412;SDS011;7805;49.554;7.632;2023-03-01T14:59:52;13.77;;;12.23;;
15412;SDS011;7805;49.554;7.632;2023-03-01T15:02:29;15.43;;;11.83;;
15412;SDS011;7805;49.554;7.632;2023-03-01T15:04:57;12.67;;;11.37;;
15412;SDS011;7805;49.554;7.632;2023-03-01T15:07:33;13.23;;;10.90;;
15412;SDS011;7805;49.554;7.632;2023-03-01T15:10:04;14.07;;;10.03;;
15412;SDS011;7805;49.554;7.632;2023-03-01T15:15:02;14.17;;;10.70;;
15412;SDS011;7805;49.554;7.632;2023-03-01T15:17:49;12.80;;;10.77;;
15412;SDS011;7805;49.554;7.632;2023-03-01T15:20:20;12.43;;;10.60;;
15412;SDS011;7805;49.554;7.632;2023-03-01T15:22:50;11.20;;;9.97;;
15412;SDS011;7805;49.554;7.632;2023-03-01T15:25:18;10.97;;;9.83;;
15412;SDS011;7805;49.554;7.632;2023-03-01T15:27:46;10.93;;;9.83;;
15412;SDS011;7805;49.554;7.632;2023-03-01T15:30:17;11.47;;;9.30;;
15412;SDS011;7805;49.554;7.632;2023-03-01T15:32:45;12.93;;;9.13;;
15412;SDS011;7805;49.554;7.632;2023-03-01T15:37:59;16.97;;;12.00;;
15412;SDS011;7805;49.554;7.632;2023-03-01T15:40:28;11.50;;;9.87;;
15412;SDS011;7805;49.554;7.632;2023-03-01T15:42:58;10.90;;;9.67;;
15412;SDS011;7805;49.554;7.632;2023-03-01T15:45:25;11.80;;;9.90;;
15412;SDS011;7805;49.554;7.632;2023-03-01T15:47:54;16.63;;;12.90;;
15412;SDS011;7805;49.554;7.632;2023-03-01T15:50:31;10.63;;;9.57;;
15412;SDS011;7805;49.554;7.632;2023-03-01T15:52:58;16.83;;;10.43;;
15412;SDS011;7805;49.554;7.632;2023-03-01T15:55:29;15.73;;;11.90;;
15412;SDS011;7805;49.554;7.632;2023-03-01T15:58:17;13.73;;;10.13;;
15412;SDS011;7805;49.554;7.632;2023-03-01T16:00:45;12.60;;;9.63;;
15412;SDS011;7805;49.554;7.632;2023-03-01T16:03:13;12.33;;;9.77;;
15412;SDS011;7805;49.554;7.632;2023-03-01T16:05:39;11.30;;;9.37;;
15412;SDS011;7805;49.554;7.632;2023-03-01T16:08:05;11.07;;;9.13;;
15412;SDS011;7805;49.554;7.632;2023-03-01T16:10:32;11.07;;;9.07;;
15412;SDS011;7805;49.554;7.632;2023-03-01T16:12:58;10.40;;;9.07;;
15412;SDS011;7805;49.554;7.632;2023-03-01T16:15:25;10.47;;;9.37;;
15412;SDS011;7805;49.554;7.632;2023-03-01T16:17:53;12.03;;;9.63;;
15412;SDS011;7805;49.554;7.632;2023-03-01T16:20:19;12.60;;;9.53;;
15412;SDS011;7805;49.554;7.632;2023-03-01T16:22:45;11.97;;;10.37;;
15412;SDS011;7805;49.554;7.632;2023-03-01T16:25:12;13.90;;;10.20;;
15412;SDS011;7805;49.554;7.632;2023-03-01T16:27:44;11.50;;;9.10;;
15412;SDS011;7805;49.554;7.632;2023-03-01T16:30:11;11.30;;;9.63;;
15412;SDS011;7805;49.554;7.632;2023-03-01T16:32:38;14.03;;;10.57;;
15412;SDS011;7805;49.554;7.632;2023-03-01T16:35:05;12.57;;;10.20;;
15412;SDS011;7805;49.554;7.632;2023-03-01T16:37:32;13.40;;;10.87;;
15412;SDS011;7805;49.554;7.632;2023-03-01T16:39:59;11.53;;;9.23;;
15412;SDS011;7805;49.554;7.632;2023-03-01T16:42:25;10.37;;;9.20;;
15412;SDS011;7805;49.554;7.632;2023-03-01T16:44:56;9.97;;;8.90;;
15412;SDS011;7805;49.554;7.632;2023-03-01T16:47:22;12.83;;;9.70;;
15412;SDS011;7805;49.554;7.632;2023-03-01T16:49:51;13.23;;;9.80;;
15412;SDS011;7805;49.554;7.632;2023-03-01T16:52:17;11.37;;;9.53;;
15412;SDS011;7805;49.554;7.632;2023-03-01T16:54:43;20.50;;;13.60;;
15412;SDS011;7805;49.554;7.632;2023-03-01T16:57:08;14.47;;;11.43;;
15412;SDS011;7805;49.554;7.632;2023-03-01T16:59:34;12.53;;;9.97;;
15412;SDS011;7805;49.554;7.632;2023-03-01T17:02:00;21.63;;;9.77;;